sensor_id;sensor_type;location;lat;lon;timestamp;temperature;humidity
1988;DHT22;12775;46.994;15.498;2024-03-08T00:00:35;5.60;99.90
1988;DHT22;12775;46.994;15.498;2024-03-08T00:03:03;5.70;99.90
1988;DHT22;12775;46.994;15.498;2024-03-08T00:05:30;5.70;99.70
1988;DHT22;12775;46.994;15.498;2024-03-08T00:07:58;5.70;99.70
1988;DHT22;12775;46.994;15.498;2024-03-08T00:10:25;5.60;99.60
1988;DHT22;12775;46.994;15.498;2024-03-08T00:12:53;5.70;99.50
1988;DHT22;12775;46.994;15.498;2024-03-08T00:15:21;5.70;99.40
1988;DHT22;12775;46.994;15.498;2024-03-08T00:17:48;5.70;99.30
1988;DHT22;12775;46.994;15.498;2024-03-08T00:20:16;5.70;99.20
1988;DHT22;12775;46.994;15.498;2024-03-08T00:22:46;5.70;99.30
1988;DHT22;12775;46.994;15.498;2024-03-08T00:25:13;5.70;99.50
1988;DHT22;12775;46.994;15.498;2024-03-08T00:27:40;5.70;99.90
1988;DHT22;12775;46.994;15.498;2024-03-08T00:30:08;5.70;99.90
1988;DHT22;12775;46.994;15.498;2024-03-08T00:32:36;5.70;99.90
1988;DHT22;12775;46.994;15.498;2024-03-08T00:35:03;5.70;99.90
1988;DHT22;12775;46.994;15.498;2024-03-08T00:37:31;5.60;99.90
1988;DHT22;12775;46.994;15.498;2024-03-08T00:39:58;5.60;99.90
1988;DHT22;12775;46.994;15.498;2024-03-08T00:42:26;5.60;99.90
1988;DHT22;12775;46.994;15.498;2024-03-08T00:44:53;5.70;99.90
1988;DHT22;12775;46.994;15.498;2024-03-08T00:47:20;5.60;99.90
1988;DHT22;12775;46.994;15.498;2024-03-08T00:49:48;5.60;99.90
1988;DHT22;12775;46.994;15.498;2024-03-08T00:52:15;5.60;99.90
1988;DHT22;12775;46.994;15.498;2024-03-08T00:54:43;5.60;99.90
1988;DHT22;12775;46.994;15.498;2024-03-08T00:57:10;5.60;99.90
1988;DHT22;12775;46.994;15.498;2024-03-08T00:59:38;5.70;99.90
1988;DHT22;12775;46.994;15.498;2024-03-08T01:02:06;5.70;99.90
1988;DHT22;12775;46.994;15.498;2024-03-08T01:04:33;5.70;99.90
1988;DHT22;12775;46.994;15.498;2024-03-08T01:07:00;5.70;99.90
1988;DHT22;12775;46.994;15.498;2024-03-08T01:09:28;5.70;99.90
1988;DHT22;12775;46.994;15.498;2024-03-08T01:11:55;5.70;99.90
1988;DHT22;12775;46.994;15.498;2024-03-08T01:14:23;5.80;99.90
1988;DHT22;12775;46.994;15.498;2024-03-08T01:16:50;5.80;99.90
1988;DHT22;12775;46.994;15.498;2024-03-08T01:19:17;5.80;99.90
1988;DHT22;12775;46.994;15.498;2024-03-08T01:21:45;5.80;99.90
1988;DHT22;12775;46.994;15.498;2024-03-08T01:24:13;5.80;99.90
1988;DHT22;12775;46.994;15.498;2024-03-08T01:26:40;5.80;99.90
1988;DHT22;12775;46.994;15.498;2024-03-08T01:29:07;5.80;99.90
1988;DHT22;12775;46.994;15.498;2024-03-08T01:31:35;5.80;99.90
1988;DHT22;12775;46.994;15.498;2024-03-08T01:34:02;5.80;99.50
1988;DHT22;12775;46.994;15.498;2024-03-08T01:36:29;5.80;99.40
1988;DHT22;12775;46.994;15.498;2024-03-08T01:38:57;5.80;99.30
1988;DHT22;12775;46.994;15.498;2024-03-08T01:41:24;5.80;99.20
1988;DHT22;12775;46.994;15.498;2024-03-08T01:43:52;5.70;99.00
1988;DHT22;12775;46.994;15.498;2024-03-08T01:46:19;5.80;98.80
1988;DHT22;12775;46.994;15.498;2024-03-08T01:48:46;5.80;98.80
1988;DHT22;12775;46.994;15.498;2024-03-08T01:51:13;5.70;98.60
1988;DHT22;12775;46.994;15.498;2024-03-08T01:53:40;5.70;98.70
1988;DHT22;12775;46.994;15.498;2024-03-08T01:56:08;5.70;98.80
1988;DHT22;12775;46.994;15.498;2024-03-08T01:58:35;5.80;98.80
1988;DHT22;12775;46.994;15.498;2024-03-08T02:01:03;5.80;98.60
1988;DHT22;12775;46.994;15.498;2024-03-08T02:03:30;5.70;98.70
1988;DHT22;12775;46.994;15.498;2024-03-08T02:05:57;5.70;99.20
1988;DHT22;12775;46.994;15.498;2024-03-08T02:11:09;5.80;99.70
1988;DHT22;12775;46.994;15.498;2024-03-08T02:13:37;5.70;99.70
1988;DHT22;12775;46.994;15.498;2024-03-08T02:16:04;5.80;99.90
1988;DHT22;12775;46.994;15.498;2024-03-08T02:18:31;5.70;99.90
1988;DHT22;12775;46.994;15.498;2024-03-08T02:20:59;5.80;99.90
1988;DHT22;12775;46.994;15.498;2024-03-08T02:23:26;5.80;99.90
1988;DHT22;12775;46.994;15.498;2024-03-08T02:25:55;5.80;99.90
1988;DHT22;12775;46.994;15.498;2024-03-08T02:28:21;5.80;99.90
1988;DHT22;12775;46.994;15.498;2024-03-08T02:30:48;5.70;99.90
1988;DHT22;12775;46.994;15.498;2024-03-08T02:33:15;5.80;99.90
1988;DHT22;12775;46.994;15.498;2024-03-08T02:35:44;5.80;99.90
1988;DHT22;12775;46.994;15.498;2024-03-08T02:38:14;5.80;99.90
1988;DHT22;12775;46.994;15.498;2024-03-08T02:40:41;5.80;99.90
1988;DHT22;12775;46.994;15.498;2024-03-08T02:43:08;5.80;99.90
1988;DHT22;12775;46.994;15.498;2024-03-08T02:45:35;5.90;99.90
1988;DHT22;12775;46.994;15.498;2024-03-08T02:48:03;5.90;99.90
1988;DHT22;12775;46.994;15.498;2024-03-08T02:50:30;5.80;99.90
1988;DHT22;12775;46.994;15.498;2024-03-08T02:52:57;5.90;99.90
1988;DHT22;12775;46.994;15.498;2024-03-08T02:55:24;5.90;99.90
1988;DHT22;12775;46.994;15.498;2024-03-08T02:57:52;5.90;99.90
1988;DHT22;12775;46.994;15.498;2024-03-08T03:00:20;5.90;99.90
1988;DHT22;12775;46.994;15.498;2024-03-08T03:02:46;5.90;99.90
1988;DHT22;12775;46.994;15.498;2024-03-08T03:05:14;5.90;99.90
1988;DHT22;12775;46.994;15.498;2024-03-08T03:07:41;5.90;99.90
1988;DHT22;12775;46.994;15.498;2024-03-08T03:10:09;5.80;99.90
1988;DHT22;12775;46.994;15.498;2024-03-08T03:12:36;5.80;99.90
1988;DHT22;12775;46.994;15.498;2024-03-08T03:15:04;5.80;99.90
1988;DHT22;12775;46.994;15.498;2024-03-08T03:17:31;5.70;99.90
1988;DHT22;12775;46.994;15.498;2024-03-08T03:19:59;5.60;99.90
1988;DHT22;12775;46.994;15.498;2024-03-08T03:22:26;5.50;99.90
1988;DHT22;12775;46.994;15.498;2024-03-08T03:24:53;5.30;99.90
1988;DHT22;12775;46.994;15.498;2024-03-08T03:27:21;5.30;99.90
1988;DHT22;12775;46.994;15.498;2024-03-08T03:29:48;5.30;99.90
1988;DHT22;12775;46.994;15.498;2024-03-08T03:32:15;5.30;99.90
1988;DHT22;12775;46.994;15.498;2024-03-08T03:34:43;5.30;99.90
1988;DHT22;12775;46.994;15.498;2024-03-08T03:37:10;5.30;99.90
1988;DHT22;12775;46.994;15.498;2024-03-08T03:39:39;5.30;99.90
1988;DHT22;12775;46.994;15.498;2024-03-08T03:42:22;5.30;99.90
1988;DHT22;12775;46.994;15.498;2024-03-08T03:44:50;5.40;99.90
1988;DHT22;12775;46.994;15.498;2024-03-08T03:47:16;5.30;99.90
1988;DHT22;12775;46.994;15.498;2024-03-08T03:49:44;5.40;99.90
1988;DHT22;12775;46.994;15.498;2024-03-08T03:52:11;5.50;99.90
1988;DHT22;12775;46.994;15.498;2024-03-08T03:54:38;5.40;99.90
1988;DHT22;12775;46.994;15.498;2024-03-08T03:57:04;5.50;99.90
1988;DHT22;12775;46.994;15.498;2024-03-08T03:59:31;5.60;99.90
1988;DHT22;12775;46.994;15.498;2024-03-08T04:01:58;5.60;99.90
1988;DHT22;12775;46.994;15.498;2024-03-08T04:04:26;5.50;99.90
1988;DHT22;12775;46.994;15.498;2024-03-08T04:06:53;5.50;99.90
1988;DHT22;12775;46.994;15.498;2024-03-08T04:09:20;5.50;99.90
1988;DHT22;12775;46.994;15.498;2024-03-08T04:11:48;5.50;99.90
1988;DHT22;12775;46.994;15.498;2024-03-08T04:14:15;5.50;99.90
1988;DHT22;12775;46.994;15.498;2024-03-08T04:16:43;5.50;99.90
1988;DHT22;12775;46.994;15.498;2024-03-08T04:19:10;5.50;99.90
1988;DHT22;12775;46.994;15.498;2024-03-08T04:21:37;5.50;99.90
1988;DHT22;12775;46.994;15.498;2024-03-08T04:24:05;5.60;99.90
1988;DHT22;12775;46.994;15.498;2024-03-08T04:26:32;5.60;99.90
1988;DHT22;12775;46.994;15.498;2024-03-08T04:29:00;5.60;99.90
1988;DHT22;12775;46.994;15.498;2024-03-08T04:31:27;5.70;99.90
1988;DHT22;12775;46.994;15.498;2024-03-08T04:33:55;5.70;99.90
1988;DHT22;12775;46.994;15.498;2024-03-08T04:36:22;5.70;99.90
1988;DHT22;12775;46.994;15.498;2024-03-08T04:38:48;5.70;99.90
1988;DHT22;12775;46.994;15.498;2024-03-08T04:41:16;5.70;99.90
1988;DHT22;12775;46.994;15.498;2024-03-08T04:43:43;5.70;99.90
1988;DHT22;12775;46.994;15.498;2024-03-08T04:46:11;5.50;99.90
1988;DHT22;12775;46.994;15.498;2024-03-08T04:48:38;5.50;99.90
1988;DHT22;12775;46.994;15.498;2024-03-08T04:51:05;5.50;99.90
1988;DHT22;12775;46.994;15.498;2024-03-08T04:53:33;5.60;99.90
1988;DHT22;12775;46.994;15.498;2024-03-08T04:56:00;5.50;99.90
1988;DHT22;12775;46.994;15.498;2024-03-08T04:58:27;5.50;99.90
1988;DHT22;12775;46.994;15.498;2024-03-08T05:00:55;5.50;99.90
1988;DHT22;12775;46.994;15.498;2024-03-08T05:03:22;5.50;99.90
1988;DHT22;12775;46.994;15.498;2024-03-08T05:05:50;5.50;99.90
1988;DHT22;12775;46.994;15.498;2024-03-08T05:08:16;5.40;99.90
1988;DHT22;12775;46.994;15.498;2024-03-08T05:10:43;5.40;99.90
1988;DHT22;12775;46.994;15.498;2024-03-08T05:13:10;5.30;99.90
1988;DHT22;12775;46.994;15.498;2024-03-08T05:15:36;5.40;99.90
1988;DHT22;12775;46.994;15.498;2024-03-08T05:18:03;5.40;99.90
1988;DHT22;12775;46.994;15.498;2024-03-08T05:20:29;5.40;99.90
1988;DHT22;12775;46.994;15.498;2024-03-08T05:22:56;5.40;99.90
1988;DHT22;12775;46.994;15.498;2024-03-08T05:25:23;5.50;99.90
1988;DHT22;12775;46.994;15.498;2024-03-08T05:27:50;5.50;99.90
1988;DHT22;12775;46.994;15.498;2024-03-08T05:30:17;5.60;99.90
1988;DHT22;12775;46.994;15.498;2024-03-08T05:32:44;5.50;99.90
1988;DHT22;12775;46.994;15.498;2024-03-08T05:35:11;5.60;99.90
1988;DHT22;12775;46.994;15.498;2024-03-08T05:37:38;5.60;99.90
1988;DHT22;12775;46.994;15.498;2024-03-08T05:40:05;5.70;99.90
1988;DHT22;12775;46.994;15.498;2024-03-08T05:42:32;5.60;99.90
1988;DHT22;12775;46.994;15.498;2024-03-08T05:44:59;5.50;99.90
1988;DHT22;12775;46.994;15.498;2024-03-08T05:47:27;5.50;99.90
1988;DHT22;12775;46.994;15.498;2024-03-08T05:49:54;5.50;99.90
1988;DHT22;12775;46.994;15.498;2024-03-08T05:52:22;5.50;99.90
1988;DHT22;12775;46.994;15.498;2024-03-08T05:54:49;5.50;99.90
1988;DHT22;12775;46.994;15.498;2024-03-08T05:57:16;5.50;99.90
1988;DHT22;12775;46.994;15.498;2024-03-08T05:59:43;5.50;99.90
1988;DHT22;12775;46.994;15.498;2024-03-08T06:02:10;5.60;99.90
1988;DHT22;12775;46.994;15.498;2024-03-08T06:04:38;5.50;99.90
1988;DHT22;12775;46.994;15.498;2024-03-08T06:07:05;5.50;99.90
1988;DHT22;12775;46.994;15.498;2024-03-08T06:09:32;5.60;99.90
1988;DHT22;12775;46.994;15.498;2024-03-08T06:12:00;5.60;99.90
1988;DHT22;12775;46.994;15.498;2024-03-08T06:14:27;5.50;99.90
1988;DHT22;12775;46.994;15.498;2024-03-08T06:16:54;5.50;99.90
1988;DHT22;12775;46.994;15.498;2024-03-08T06:19:22;5.50;99.90
1988;DHT22;12775;46.994;15.498;2024-03-08T06:21:48;5.50;99.90
1988;DHT22;12775;46.994;15.498;2024-03-08T06:24:15;5.50;99.90
1988;DHT22;12775;46.994;15.498;2024-03-08T06:26:42;5.50;99.90
1988;DHT22;12775;46.994;15.498;2024-03-08T06:29:09;5.40;99.90
1988;DHT22;12775;46.994;15.498;2024-03-08T06:31:36;5.50;99.90
1988;DHT22;12775;46.994;15.498;2024-03-08T06:34:04;5.50;99.90
1988;DHT22;12775;46.994;15.498;2024-03-08T06:36:31;5.40;99.90
1988;DHT22;12775;46.994;15.498;2024-03-08T06:38:57;5.40;99.90
1988;DHT22;12775;46.994;15.498;2024-03-08T06:41:25;5.30;99.90
1988;DHT22;12775;46.994;15.498;2024-03-08T06:43:52;4.80;99.90
1988;DHT22;12775;46.994;15.498;2024-03-08T06:46:20;5.00;99.90
1988;DHT22;12775;46.994;15.498;2024-03-08T06:48:47;5.10;99.90
1988;DHT22;12775;46.994;15.498;2024-03-08T06:51:14;5.00;99.90
1988;DHT22;12775;46.994;15.498;2024-03-08T06:53:42;4.90;99.90
1988;DHT22;12775;46.994;15.498;2024-03-08T06:56:09;4.70;99.90
1988;DHT22;12775;46.994;15.498;2024-03-08T06:58:36;4.50;99.90
1988;DHT22;12775;46.994;15.498;2024-03-08T07:01:04;4.30;99.90
1988;DHT22;12775;46.994;15.498;2024-03-08T07:03:31;4.30;99.90
1988;DHT22;12775;46.994;15.498;2024-03-08T07:05:59;4.40;99.90
1988;DHT22;12775;46.994;15.498;2024-03-08T07:08:26;4.30;99.90
1988;DHT22;12775;46.994;15.498;2024-03-08T07:10:54;4.30;99.90
1988;DHT22;12775;46.994;15.498;2024-03-08T07:13:20;4.30;99.90
1988;DHT22;12775;46.994;15.498;2024-03-08T07:15:46;4.20;99.90
1988;DHT22;12775;46.994;15.498;2024-03-08T07:18:14;4.30;99.90
1988;DHT22;12775;46.994;15.498;2024-03-08T07:20:41;4.20;99.90
1988;DHT22;12775;46.994;15.498;2024-03-08T07:23:08;4.20;99.90
1988;DHT22;12775;46.994;15.498;2024-03-08T07:25:34;4.20;99.90
1988;DHT22;12775;46.994;15.498;2024-03-08T07:28:02;4.10;99.90
1988;DHT22;12775;46.994;15.498;2024-03-08T07:30:29;4.20;99.90
1988;DHT22;12775;46.994;15.498;2024-03-08T07:33:02;4.20;99.90
1988;DHT22;12775;46.994;15.498;2024-03-08T07:35:30;4.10;99.90
1988;DHT22;12775;46.994;15.498;2024-03-08T07:37:57;4.20;99.90
1988;DHT22;12775;46.994;15.498;2024-03-08T07:40:24;4.20;99.90
1988;DHT22;12775;46.994;15.498;2024-03-08T07:42:51;4.30;99.90
1988;DHT22;12775;46.994;15.498;2024-03-08T07:45:18;4.30;99.90
1988;DHT22;12775;46.994;15.498;2024-03-08T07:47:46;4.40;99.90
1988;DHT22;12775;46.994;15.498;2024-03-08T07:50:13;4.50;99.90
1988;DHT22;12775;46.994;15.498;2024-03-08T07:52:40;4.50;99.90
1988;DHT22;12775;46.994;15.498;2024-03-08T07:55:08;4.40;99.90
1988;DHT22;12775;46.994;15.498;2024-03-08T07:57:34;4.40;99.90
1988;DHT22;12775;46.994;15.498;2024-03-08T08:00:01;4.60;99.90
1988;DHT22;12775;46.994;15.498;2024-03-08T08:02:28;4.70;99.90
1988;DHT22;12775;46.994;15.498;2024-03-08T08:04:54;4.80;99.90
1988;DHT22;12775;46.994;15.498;2024-03-08T08:07:22;4.80;99.90
1988;DHT22;12775;46.994;15.498;2024-03-08T08:09:49;4.80;99.90
1988;DHT22;12775;46.994;15.498;2024-03-08T08:12:16;4.80;99.90
1988;DHT22;12775;46.994;15.498;2024-03-08T08:14:44;4.80;99.90
1988;DHT22;12775;46.994;15.498;2024-03-08T08:17:11;4.90;99.90
1988;DHT22;12775;46.994;15.498;2024-03-08T08:19:40;4.90;99.90
1988;DHT22;12775;46.994;15.498;2024-03-08T08:22:06;5.10;99.90
1988;DHT22;12775;46.994;15.498;2024-03-08T08:24:33;5.10;99.90
1988;DHT22;12775;46.994;15.498;2024-03-08T08:27:02;5.20;99.90
1988;DHT22;12775;46.994;15.498;2024-03-08T08:29:29;5.20;99.90
1988;DHT22;12775;46.994;15.498;2024-03-08T08:31:59;5.30;99.90
1988;DHT22;12775;46.994;15.498;2024-03-08T08:34:26;5.40;99.90
1988;DHT22;12775;46.994;15.498;2024-03-08T08:36:54;5.40;99.90
1988;DHT22;12775;46.994;15.498;2024-03-08T08:39:21;5.40;99.90
1988;DHT22;12775;46.994;15.498;2024-03-08T08:41:48;5.50;99.90
1988;DHT22;12775;46.994;15.498;2024-03-08T08:44:16;5.60;99.90
1988;DHT22;12775;46.994;15.498;2024-03-08T08:46:44;5.70;99.90
1988;DHT22;12775;46.994;15.498;2024-03-08T08:49:11;5.90;99.90
1988;DHT22;12775;46.994;15.498;2024-03-08T08:51:39;6.00;99.90
1988;DHT22;12775;46.994;15.498;2024-03-08T08:54:06;6.20;99.90
1988;DHT22;12775;46.994;15.498;2024-03-08T08:56:34;6.20;99.90
1988;DHT22;12775;46.994;15.498;2024-03-08T08:59:00;6.20;99.90
1988;DHT22;12775;46.994;15.498;2024-03-08T09:01:27;6.40;99.90
1988;DHT22;12775;46.994;15.498;2024-03-08T09:03:54;6.60;99.90
1988;DHT22;12775;46.994;15.498;2024-03-08T09:06:21;6.70;99.90
1988;DHT22;12775;46.994;15.498;2024-03-08T09:08:49;6.90;99.90
1988;DHT22;12775;46.994;15.498;2024-03-08T09:11:16;6.90;99.90
1988;DHT22;12775;46.994;15.498;2024-03-08T09:13:45;6.90;99.90
1988;DHT22;12775;46.994;15.498;2024-03-08T09:16:11;6.90;99.90
1988;DHT22;12775;46.994;15.498;2024-03-08T09:18:38;7.10;99.90
1988;DHT22;12775;46.994;15.498;2024-03-08T09:21:05;7.30;99.90
1988;DHT22;12775;46.994;15.498;2024-03-08T09:23:33;7.50;99.90
1988;DHT22;12775;46.994;15.498;2024-03-08T09:26:00;7.60;99.90
1988;DHT22;12775;46.994;15.498;2024-03-08T09:28:27;7.50;99.90
1988;DHT22;12775;46.994;15.498;2024-03-08T09:30:54;7.70;99.90
1988;DHT22;12775;46.994;15.498;2024-03-08T09:33:21;7.80;99.90
1988;DHT22;12775;46.994;15.498;2024-03-08T09:35:49;7.80;99.90
1988;DHT22;12775;46.994;15.498;2024-03-08T09:38:16;7.90;99.90
1988;DHT22;12775;46.994;15.498;2024-03-08T09:40:43;7.90;99.90
1988;DHT22;12775;46.994;15.498;2024-03-08T09:43:09;8.00;99.90
1988;DHT22;12775;46.994;15.498;2024-03-08T09:45:36;8.00;99.90
1988;DHT22;12775;46.994;15.498;2024-03-08T09:48:04;8.10;99.90
1988;DHT22;12775;46.994;15.498;2024-03-08T09:50:31;8.30;99.90
1988;DHT22;12775;46.994;15.498;2024-03-08T09:52:59;8.40;99.90
1988;DHT22;12775;46.994;15.498;2024-03-08T09:55:26;8.50;99.90
1988;DHT22;12775;46.994;15.498;2024-03-08T09:57:53;8.50;99.90
1988;DHT22;12775;46.994;15.498;2024-03-08T10:00:23;8.50;99.90
1988;DHT22;12775;46.994;15.498;2024-03-08T10:02:51;8.50;99.90
1988;DHT22;12775;46.994;15.498;2024-03-08T10:05:19;8.60;99.90
1988;DHT22;12775;46.994;15.498;2024-03-08T10:07:46;8.70;99.90
1988;DHT22;12775;46.994;15.498;2024-03-08T10:10:14;8.80;99.90
1988;DHT22;12775;46.994;15.498;2024-03-08T10:12:41;8.70;99.90
1988;DHT22;12775;46.994;15.498;2024-03-08T10:15:09;8.80;99.90
1988;DHT22;12775;46.994;15.498;2024-03-08T10:17:36;8.90;99.90
1988;DHT22;12775;46.994;15.498;2024-03-08T10:20:04;9.00;99.90
1988;DHT22;12775;46.994;15.498;2024-03-08T10:22:31;8.90;99.90
1988;DHT22;12775;46.994;15.498;2024-03-08T10:24:59;9.00;99.90
1988;DHT22;12775;46.994;15.498;2024-03-08T10:27:26;9.00;99.90
1988;DHT22;12775;46.994;15.498;2024-03-08T10:29:53;8.90;99.90
1988;DHT22;12775;46.994;15.498;2024-03-08T10:32:21;9.00;99.90
1988;DHT22;12775;46.994;15.498;2024-03-08T10:34:48;9.00;99.90
1988;DHT22;12775;46.994;15.498;2024-03-08T10:37:15;9.00;99.90
1988;DHT22;12775;46.994;15.498;2024-03-08T10:39:42;9.20;99.90
1988;DHT22;12775;46.994;15.498;2024-03-08T10:42:10;9.10;99.90
1988;DHT22;12775;46.994;15.498;2024-03-08T10:44:44;9.10;99.90
1988;DHT22;12775;46.994;15.498;2024-03-08T10:47:15;9.20;99.90
1988;DHT22;12775;46.994;15.498;2024-03-08T10:49:41;9.30;99.90
1988;DHT22;12775;46.994;15.498;2024-03-08T10:52:06;9.30;98.20
1988;DHT22;12775;46.994;15.498;2024-03-08T10:54:34;9.10;97.10
1988;DHT22;12775;46.994;15.498;2024-03-08T10:57:03;9.00;97.10
1988;DHT22;12775;46.994;15.498;2024-03-08T10:59:29;8.80;95.60
1988;DHT22;12775;46.994;15.498;2024-03-08T11:01:56;8.80;95.20
1988;DHT22;12775;46.994;15.498;2024-03-08T11:04:24;8.80;94.40
1988;DHT22;12775;46.994;15.498;2024-03-08T11:06:50;8.70;94.30
1988;DHT22;12775;46.994;15.498;2024-03-08T11:09:36;8.70;93.80
1988;DHT22;12775;46.994;15.498;2024-03-08T11:14:42;8.70;93.90
1988;DHT22;12775;46.994;15.498;2024-03-08T11:17:08;8.70;94.70
1988;DHT22;12775;46.994;15.498;2024-03-08T11:19:36;8.60;94.40
1988;DHT22;12775;46.994;15.498;2024-03-08T11:22:03;8.80;93.50
1988;DHT22;12775;46.994;15.498;2024-03-08T11:24:37;8.70;94.00
1988;DHT22;12775;46.994;15.498;2024-03-08T11:27:03;8.70;94.00
1988;DHT22;12775;46.994;15.498;2024-03-08T11:29:34;9.20;99.90
1988;DHT22;12775;46.994;15.498;2024-03-08T11:32:12;9.10;99.90
1988;DHT22;12775;46.994;15.498;2024-03-08T11:34:41;9.40;94.90
1988;DHT22;12775;46.994;15.498;2024-03-08T11:37:12;9.60;98.60
1988;DHT22;12775;46.994;15.498;2024-03-08T11:39:39;9.90;99.80
1988;DHT22;12775;46.994;15.498;2024-03-08T11:42:05;10.10;97.30
1988;DHT22;12775;46.994;15.498;2024-03-08T11:44:33;10.20;91.00
1988;DHT22;12775;46.994;15.498;2024-03-08T11:47:00;10.00;87.60
1988;DHT22;12775;46.994;15.498;2024-03-08T11:49:27;10.00;89.50
1988;DHT22;12775;46.994;15.498;2024-03-08T11:51:55;10.10;89.30
1988;DHT22;12775;46.994;15.498;2024-03-08T11:54:22;10.00;88.20
1988;DHT22;12775;46.994;15.498;2024-03-08T11:56:51;10.10;85.50
1988;DHT22;12775;46.994;15.498;2024-03-08T11:59:18;10.10;90.00
1988;DHT22;12775;46.994;15.498;2024-03-08T12:01:56;9.90;92.30
1988;DHT22;12775;46.994;15.498;2024-03-08T12:04:12;9.70;90.00
1988;DHT22;12775;46.994;15.498;2024-03-08T12:06:40;9.70;88.50
1988;DHT22;12775;46.994;15.498;2024-03-08T12:09:11;9.70;88.50
1988;DHT22;12775;46.994;15.498;2024-03-08T12:11:37;9.80;88.60
1988;DHT22;12775;46.994;15.498;2024-03-08T12:14:03;9.70;88.60
1988;DHT22;12775;46.994;15.498;2024-03-08T12:16:31;9.70;87.40
1988;DHT22;12775;46.994;15.498;2024-03-08T12:18:59;9.60;87.10
1988;DHT22;12775;46.994;15.498;2024-03-08T12:21:27;9.50;86.90
1988;DHT22;12775;46.994;15.498;2024-03-08T12:24:03;9.40;88.90
1988;DHT22;12775;46.994;15.498;2024-03-08T12:26:30;9.50;89.70
1988;DHT22;12775;46.994;15.498;2024-03-08T12:31:37;8.90;90.50
1988;DHT22;12775;46.994;15.498;2024-03-08T12:34:04;8.70;90.70
1988;DHT22;12775;46.994;15.498;2024-03-08T12:36:32;8.60;91.10
1988;DHT22;12775;46.994;15.498;2024-03-08T12:38:59;8.50;91.40
1988;DHT22;12775;46.994;15.498;2024-03-08T12:41:26;8.50;92.20
1988;DHT22;12775;46.994;15.498;2024-03-08T12:43:54;8.50;93.30
1988;DHT22;12775;46.994;15.498;2024-03-08T12:46:21;8.50;94.00
1988;DHT22;12775;46.994;15.498;2024-03-08T12:48:49;8.40;92.40
1988;DHT22;12775;46.994;15.498;2024-03-08T12:51:17;8.40;93.00
1988;DHT22;12775;46.994;15.498;2024-03-08T12:53:44;8.40;93.10
1988;DHT22;12775;46.994;15.498;2024-03-08T12:56:12;8.50;92.50
1988;DHT22;12775;46.994;15.498;2024-03-08T12:58:39;8.30;92.30
1988;DHT22;12775;46.994;15.498;2024-03-08T13:01:06;8.40;93.00
1988;DHT22;12775;46.994;15.498;2024-03-08T13:03:34;8.50;92.20
1988;DHT22;12775;46.994;15.498;2024-03-08T13:06:04;8.50;92.40
1988;DHT22;12775;46.994;15.498;2024-03-08T13:08:36;8.40;91.40
1988;DHT22;12775;46.994;15.498;2024-03-08T13:11:03;8.40;91.40
1988;DHT22;12775;46.994;15.498;2024-03-08T13:13:30;8.50;91.80
1988;DHT22;12775;46.994;15.498;2024-03-08T13:15:57;8.30;91.50
1988;DHT22;12775;46.994;15.498;2024-03-08T13:18:25;8.40;91.60
1988;DHT22;12775;46.994;15.498;2024-03-08T13:20:52;8.40;92.00
1988;DHT22;12775;46.994;15.498;2024-03-08T13:23:20;8.50;91.50
1988;DHT22;12775;46.994;15.498;2024-03-08T13:25:47;8.50;92.80
1988;DHT22;12775;46.994;15.498;2024-03-08T13:28:14;8.60;92.40
1988;DHT22;12775;46.994;15.498;2024-03-08T13:30:42;8.60;91.70
1988;DHT22;12775;46.994;15.498;2024-03-08T13:33:09;8.70;91.60
1988;DHT22;12775;46.994;15.498;2024-03-08T13:35:36;8.80;94.80
1988;DHT22;12775;46.994;15.498;2024-03-08T13:38:04;8.90;92.00
1988;DHT22;12775;46.994;15.498;2024-03-08T13:40:30;8.90;92.10
1988;DHT22;12775;46.994;15.498;2024-03-08T13:42:58;8.90;92.40
1988;DHT22;12775;46.994;15.498;2024-03-08T13:45:25;8.90;91.10
1988;DHT22;12775;46.994;15.498;2024-03-08T13:47:53;8.80;91.10
1988;DHT22;12775;46.994;15.498;2024-03-08T13:50:20;8.80;91.20
1988;DHT22;12775;46.994;15.498;2024-03-08T13:52:49;8.70;91.40
1988;DHT22;12775;46.994;15.498;2024-03-08T13:55:19;8.50;91.80
1988;DHT22;12775;46.994;15.498;2024-03-08T13:57:47;8.50;92.30
1988;DHT22;12775;46.994;15.498;2024-03-08T14:00:14;8.40;92.30
1988;DHT22;12775;46.994;15.498;2024-03-08T14:02:41;8.40;92.20
1988;DHT22;12775;46.994;15.498;2024-03-08T14:05:07;8.30;92.60
1988;DHT22;12775;46.994;15.498;2024-03-08T14:07:36;8.30;92.50
1988;DHT22;12775;46.994;15.498;2024-03-08T14:10:03;8.30;92.60
1988;DHT22;12775;46.994;15.498;2024-03-08T14:12:30;8.30;92.60
1988;DHT22;12775;46.994;15.498;2024-03-08T14:14:58;8.30;93.20
1988;DHT22;12775;46.994;15.498;2024-03-08T14:17:26;8.20;93.60
1988;DHT22;12775;46.994;15.498;2024-03-08T14:19:53;8.20;93.60
1988;DHT22;12775;46.994;15.498;2024-03-08T14:22:19;8.20;94.30
1988;DHT22;12775;46.994;15.498;2024-03-08T14:24:46;8.30;94.40
1988;DHT22;12775;46.994;15.498;2024-03-08T14:27:13;8.30;94.30
1988;DHT22;12775;46.994;15.498;2024-03-08T14:29:40;8.40;94.30
1988;DHT22;12775;46.994;15.498;2024-03-08T14:32:06;8.50;94.10
1988;DHT22;12775;46.994;15.498;2024-03-08T14:34:34;8.50;93.90
1988;DHT22;12775;46.994;15.498;2024-03-08T14:37:02;8.30;93.70
1988;DHT22;12775;46.994;15.498;2024-03-08T14:39:31;8.40;95.00
1988;DHT22;12775;46.994;15.498;2024-03-08T14:41:59;8.40;94.90
1988;DHT22;12775;46.994;15.498;2024-03-08T14:44:26;8.40;94.20
1988;DHT22;12775;46.994;15.498;2024-03-08T14:46:54;8.50;94.50
1988;DHT22;12775;46.994;15.498;2024-03-08T14:49:23;8.60;93.70
1988;DHT22;12775;46.994;15.498;2024-03-08T14:51:51;8.60;93.50
1988;DHT22;12775;46.994;15.498;2024-03-08T14:54:18;8.60;94.10
1988;DHT22;12775;46.994;15.498;2024-03-08T14:56:46;8.60;94.10
1988;DHT22;12775;46.994;15.498;2024-03-08T14:59:13;8.80;93.30
1988;DHT22;12775;46.994;15.498;2024-03-08T15:01:41;8.80;93.10
1988;DHT22;12775;46.994;15.498;2024-03-08T15:04:07;8.80;93.10
1988;DHT22;12775;46.994;15.498;2024-03-08T15:06:35;8.70;92.50
1988;DHT22;12775;46.994;15.498;2024-03-08T15:09:03;8.70;93.60
1988;DHT22;12775;46.994;15.498;2024-03-08T15:11:32;8.60;93.40
1988;DHT22;12775;46.994;15.498;2024-03-08T15:14:00;8.60;93.80
1988;DHT22;12775;46.994;15.498;2024-03-08T15:16:26;8.60;93.80
1988;DHT22;12775;46.994;15.498;2024-03-08T15:18:53;8.60;93.90
1988;DHT22;12775;46.994;15.498;2024-03-08T15:21:22;8.60;94.30
1988;DHT22;12775;46.994;15.498;2024-03-08T15:23:49;8.50;94.20
1988;DHT22;12775;46.994;15.498;2024-03-08T15:26:18;8.30;94.70
1988;DHT22;12775;46.994;15.498;2024-03-08T15:28:45;8.20;94.40
1988;DHT22;12775;46.994;15.498;2024-03-08T15:31:13;8.10;94.80
1988;DHT22;12775;46.994;15.498;2024-03-08T15:33:40;8.00;95.80
1988;DHT22;12775;46.994;15.498;2024-03-08T15:36:11;7.80;96.10
1988;DHT22;12775;46.994;15.498;2024-03-08T15:38:38;7.70;96.10
1988;DHT22;12775;46.994;15.498;2024-03-08T15:41:06;7.70;97.30
1988;DHT22;12775;46.994;15.498;2024-03-08T15:43:37;7.70;97.20
1988;DHT22;12775;46.994;15.498;2024-03-08T15:46:04;7.70;96.80
1988;DHT22;12775;46.994;15.498;2024-03-08T15:48:32;7.60;96.80
1988;DHT22;12775;46.994;15.498;2024-03-08T15:50:59;7.70;97.20
1988;DHT22;12775;46.994;15.498;2024-03-08T15:53:26;7.70;97.20